Tiempo atmosférico en la estación meteorológica de Pontons, Barcelona (630 m.)



Fecha
DESCASC
Temp. máxima en grados centígrados (hora)
DESCASC
Temp. mínima en grados centígrados (hora)
DESCASC
Temp. media en grados centígrados
DESCASC
Racha de viento máxima en m/sg (hora)
DESCASC
Velocidad máxima media en intervalos de 10 minutos(hora)
DESCASC
Precipitaciones diarias en mm
DESCASC
Precipitaciones de 00:00 a 06:00 en mm
DESCASC
Precipitaciones de 06:00 a 12:00 en mm
DESCASC
Precipitaciones de 12:00 a 18:00 en mm
DESCASC
Precipitaciones de 18:00 a 24:00 en mm
DESCASC
13-01-2021 8.3 (15:20) 0.9 (02:00) 4.6 13.06 (12:40) 10 (12:50) 0 0 0 0 0
12-01-2021 3.6 (14:40) -2.3 (03:30) 0.6 12.78 (13:40) 10.28 (13:40) 0 0 0 0 0
11-01-2021 2.1 (14:00) -2.4 (19:20) -0.2 10.28 (19:30) 6.67 (19:30) 0 0 0 0 0
10-01-2021 2.5 (12:40) 0.1 (23:20) 1.3 7.22 (08:20) 4.17 (21:30) 8.2 2.4 2.2 3 0.6
09-01-2021 2 (18:40) -0.9 (-00:0) 0.6 11.11 (04:10) 6.11 (03:30) 19.4 0 0 12.4 7
08-01-2021 4.5 (13:40) -2 (-00:0) 1.3 7.22 (04:30) 4.72 (05:00) 0 0 0 0 0
07-01-2021 4.6 (14:40) -3.8 (-00:0) 0.4 6.94 (19:20) 4.44 (19:20) 0 0 0 0 0
06-01-2021 7.2 (14:40) -4.4 (-00:0) 1.4 5 (00:20) 3.33 (00:20) 0 0 0 0 0
05-01-2021 6.9 (15:00) -2.6 (-00:0) 2.2 11.67 (00:40) 8.06 (00:30) 0 0 0 0 0
04-01-2021 5.7 (14:20) -1.7 (-00:0) 2 11.67 (12:50) 6.67 (12:20) 0 0 0 0 0
03-01-2021 6.6 (15:00) -2.7 (-00:0) 1.9 11.67 (12:30) 7.5 (04:10) 0 0 0 0 0
02-01-2021 5 (15:00) -1.5 (-00:0) 1.8 15.83 (01:10) 8.61 (01:00) 0 0 0 0 0
01-01-2021 5.7 (11:50) 1.8 (00:00) 3.7 13.61 (22:40) 8.06 (22:40) 0.4 0 0 0.4 0
31-12-2020 8.7 (15:30) 2.1 (00:00) 5.4 14.72 (06:10) 8.89 (11:50) 0 0 0 0 0
30-12-2020 6.6 (14:50) 1.1 (00:00) 3.8 19.72 (02:50) 13.89 (03:00) 0 0 0 0 0
29-12-2020 7.4 (13:50) 3.3 (00:00) 5.4 20 (04:20) 14.17 (04:10) 0 0 0 0 0
28-12-2020 7.5 (16:10) 3.4 (00:00) 5.5 25.28 (11:20) 17.5 (13:10) 0.2 0 0 0.2 0
27-12-2020 7.7 (21:00) 0.1 (00:00) 3.9 13.33 (23:50) 8.33 (11:30) 0 0 0 0 0
26-12-2020 8.3 (13:20) -0.2 (00:00) 4.1 19.17 (05:20) 12.5 (07:10) 0 0 0 0 0
25-12-2020 7.6 (14:00) 0.4 (00:00) 4 15 (15:00) 9.72 (00:50) 0 0 0 0 0
24-12-2020 11.3 (00:00) 4.3 (00:00) 7.8 12.5 (23:30) 9.17 (23:40) 0 0 0 0 0
23-12-2020 16.8 (14:00) 8 (00:00) 12.4 8.89 (23:50) 5.28 (23:40) 0 0 0 0 0
22-12-2020 17.1 (14:30) 4.8 (00:00) 11 5.83 (23:59) 4.44 (23:59) 0 0 0 0 0
21-12-2020 12 (13:40) 2.5 (00:00) 7.3 10.83 (11:50) 7.5 (12:10) 0 0 0 0 0
20-12-2020 10.1 (13:30) 2.9 (00:00) 6.5 12.78 (11:50) 7.78 (11:10) 0.6 0.6 0 0 0
19-12-2020 13.9 (13:40) 6.3 (00:00) 10.1 6.94 (07:30) 5 (07:40) 0 0 0 0 0
18-12-2020 12.2 (14:50) 6.8 (00:00) 9.5 3.61 (11:50) 2.78 (12:00) 0.4 0 0.2 0.2 0
17-12-2020 13.7 (14:20) 3.9 (00:00) 8.8 5.28 (15:20) 3.61 (15:20) 0 0 0 0 0

Gráficas

Temp. máximas Temp. mínimas Temp. medias Precipitaciones Rachas de viento máximas Velocidades máximas media en intervalos de 10 minutos

Datos horarios

Fecha y hora oficial Temperatura (ºC) Velocidad del viento (km/h) Dirección del viento Racha (km/h) Dirección de racha Precipitación (mm) Presión (hPa) Tendencia (hPa) Humedad (%)
2021-01-15 23:00:00 3.4 10 Noroeste 33 Noroeste 0 -- -- 70
2021-01-15 22:00:00 4.1 14 Noroeste 29 Noroeste 0 -- -- 67
2021-01-15 21:00:00 3.7 12 Noroeste 22 Noroeste 0 -- -- 71
2021-01-15 20:00:00 5.4 12 Noroeste 31 Noroeste 0 -- -- 66
2021-01-15 19:00:00 6.5 21 Noroeste 38 Oeste 0 -- -- 63
2021-01-15 18:00:00 7 21 Noroeste 47 Oeste 0 -- -- 62
2021-01-15 17:00:00 8.6 30 Noroeste 43 Oeste 0 -- -- 55
2021-01-15 16:00:00 9 29 Noroeste 45 Noroeste 0 -- -- 55
2021-01-15 15:00:00 9.1 26 Noroeste 47 Noroeste 0 -- -- 54
2021-01-15 14:00:00 8.3 30 Noroeste 49 Noroeste 0 -- -- 58
2021-01-15 13:00:00 7.3 28 Noroeste 53 Noroeste 0 -- -- 60
2021-01-15 12:00:00 5.7 24 Noroeste 51 Noroeste 0 -- -- 66
2021-01-15 11:00:00 5.3 30 Noroeste 45 Noroeste 0 -- -- 68
2021-01-15 10:00:00 4.5 24 Noroeste 45 Noroeste 0 -- -- 68
2021-01-15 09:00:00 3.2 21 Noroeste 42 Noroeste 0 -- -- 72
2021-01-15 08:00:00 2.6 27 Noroeste 42 Noroeste 0 -- -- 76
2021-01-15 07:00:00 2.5 22 Noroeste 36 Noroeste 0 -- -- 78
2021-01-15 06:00:00 2.6 22 Noroeste 40 Noroeste 0 -- -- 80
2021-01-15 05:00:00 3 19 Noroeste 42 Noroeste 0 -- -- 82
2021-01-15 04:00:00 3.2 23 Noroeste 41 Noroeste 0 -- -- 83
2021-01-15 03:00:00 3.4 13 Noroeste 35 Noroeste 0 -- -- 82
2021-01-15 02:00:00 3.3 13 Noroeste 36 Noroeste 0 -- -- 81
2021-01-15 01:00:00 3 13 Noroeste 33 Noroeste 0 -- -- 81
2021-01-15 00:00:00 3.6 4 Oeste 28 Noroeste 0 -- -- 70
2021-01-14 23:00:00 3.4 13 Oeste 34 Noroeste 0 -- -- 73
2021-01-14 22:00:00 3.9 17 Oeste 31 Noroeste 0 -- -- 72
2021-01-14 21:00:00 3.7 20 Oeste 35 Oeste 0 -- -- 76
2021-01-14 20:00:00 5 21 Sudoeste 45 Oeste 0 -- -- 71
2021-01-14 19:00:00 4.9 26 Oeste 47 Oeste 0 -- -- 73
2021-01-14 18:00:00 5.1 28 Oeste 44 Oeste 0 -- -- 72
2021-01-14 17:00:00 6.4 20 Oeste 36 Oeste 0 -- -- 64
2021-01-14 16:00:00 6.3 21 Oeste 39 Oeste 0 -- -- 62
2021-01-14 15:00:00 6.7 25 Noroeste 39 Noroeste 0 -- -- 60
2021-01-14 14:00:00 5.8 22 Noroeste 40 Noroeste 0 -- -- 66
2021-01-14 13:00:00 5.9 20 Noroeste 36 Oeste 0 -- -- 65
2021-01-14 12:00:00 4.8 24 Oeste 37 Oeste 0 -- -- 69
2021-01-14 11:00:00 4 24 Oeste 43 Oeste 0 -- -- 72
2021-01-14 10:00:00 2.7 26 Oeste 42 Oeste 0 -- -- 78
2021-01-14 09:00:00 2.2 23 Oeste 36 Oeste 0 -- -- 79
2021-01-14 08:00:00 1.6 25 Oeste 43 Oeste 0 -- -- 82
2021-01-14 07:00:00 1.5 31 Oeste 43 Oeste 0 -- -- 84
2021-01-14 06:00:00 1.8 27 Oeste 42 Oeste 0 -- -- 84
2021-01-14 05:00:00 2.2 23 Oeste 37 Oeste 0 -- -- 83
2021-01-14 04:00:00 2.4 20 Oeste 31 Oeste 0 -- -- 82
2021-01-14 03:00:00 3.1 22 Oeste 37 Oeste 0 -- -- 80
2021-01-14 02:00:00 2.9 27 Oeste 39 Oeste 0 -- -- 83
2021-01-14 01:00:00 3.2 30 Oeste 41 Oeste 0 -- -- 82
2021-01-14 00:00:00 3.8 19 Noroeste 40 Oeste 0 -- -- 79
2021-01-13 23:00:00 4.2 13 Oeste 29 Noroeste 0 -- -- 78
2021-01-13 22:00:00 4.7 18 Oeste 33 Oeste 0 -- -- 76
2021-01-13 21:00:00 5.5 19 Oeste 37 Oeste 0 -- -- 73
2021-01-13 20:00:00 4.9 23 Oeste 34 Oeste 0 -- -- 76
2021-01-13 19:00:00 4.6 22 Oeste 31 Oeste 0 -- -- 75
2021-01-13 18:00:00 4.8 20 Noroeste 35 Oeste 0 -- -- 74
2021-01-13 17:00:00 5.7 26 Noroeste 44 Noroeste 0 -- -- 69
2021-01-13 16:00:00 6.5 20 Oeste 33 Oeste 0 -- -- 65
2021-01-13 15:00:00 7.8 18 Noroeste 40 Oeste 0 -- -- 56
2021-01-13 14:00:00 7.5 29 Oeste 42 Noroeste 0 -- -- 57
2021-01-13 13:00:00 5.7 33 Oeste 47 Oeste 0 -- -- 67
2021-01-13 12:00:00 4 24 Oeste 41 Oeste 0 -- -- 74
2021-01-13 11:00:00 3.1 28 Oeste 43 Oeste 0 -- -- 77
2021-01-13 10:00:00 2.6 30 Oeste 44 Oeste 0 -- -- 78
2021-01-13 09:00:00 2.4 29 Oeste 36 Oeste 0 -- -- 77
2021-01-13 08:00:00 1.3 25 Oeste 35 Oeste 0 -- -- 81
2021-01-13 07:00:00 1.4 22 Oeste 38 Noroeste 0 -- -- 81
2021-01-13 06:00:00 1.1 22 Oeste 43 Noroeste 0 -- -- 80
2021-01-13 05:00:00 1.4 24 Noroeste 33 Noroeste 0 -- -- 77
2021-01-13 04:00:00 1.9 12 Noroeste 31 Noroeste 0 -- -- 72
2021-01-13 03:00:00 1.3 18 Noroeste 35 Noroeste 0 -- -- 78
2021-01-13 02:00:00 0.9 17 Oeste 36 Oeste 0 -- -- 78
2021-01-13 01:00:00 1.6 20 Oeste 39 Noroeste 0 -- -- 74
2021-01-13 00:00:00 1.5 27 Oeste 36 Noroeste 0 -- -- 75
2021-01-12 23:00:00 1.4 23 Oeste 34 Oeste 0 -- -- 76
2021-01-12 22:00:00 1.9 24 Oeste 37 Oeste 0 -- -- 72
2021-01-12 21:00:00 1.8 24 Oeste 36 Oeste 0 -- -- 71
2021-01-12 20:00:00 2 23 Oeste 37 Oeste 0 -- -- 69
2021-01-12 19:00:00 1.8 28 Oeste 43 Oeste 0 -- -- 69
2021-01-12 18:00:00 1.2 25 Oeste 45 Oeste 0 -- -- 71
2021-01-12 17:00:00 2.1 23 Oeste 38 Oeste 0 -- -- 67
2021-01-12 16:00:00 2.8 24 Oeste 39 Oeste 0 -- -- 64
2021-01-12 15:00:00 2.9 29 Oeste 44 Noroeste 0 -- -- 62
2021-01-12 14:00:00 3 31 Noroeste 46 Noroeste 0 -- -- 63
2021-01-12 13:00:00 2.4 23 Noroeste 42 Oeste 0 -- -- 62
2021-01-12 12:00:00 1.4 24 Noroeste 45 Oeste 0 -- -- 63
2021-01-12 11:00:00 0.5 26 Oeste 39 Oeste 0 -- -- 63
2021-01-12 10:00:00 -0.3 25 Sudoeste 39 Noroeste 0 -- -- 61
2021-01-12 09:00:00 -1.3 23 Oeste 40 Oeste 0 -- -- 65
2021-01-12 08:00:00 -1.4 20 Oeste 40 Oeste 0 -- -- 59
2021-01-12 07:00:00 -1.2 25 Oeste 40 Oeste 0 -- -- 53
2021-01-12 06:00:00 -1.8 23 Oeste 36 Oeste 0 -- -- 59
2021-01-12 05:00:00 -1.5 15 Noroeste 37 Noroeste 0 -- -- 56
2021-01-12 04:00:00 -2 15 Oeste 33 Oeste 0 -- -- 63
2021-01-12 03:00:00 -2 21 Oeste 34 Oeste 0 -- -- 66
2021-01-12 02:00:00 -1.8 20 Sudoeste 33 Sudoeste 0 -- -- 67
2021-01-12 01:00:00 -2.2 15 Sudoeste 36 Sudoeste 0 -- -- 72
2021-01-12 00:00:00 -1.7 15 Oeste 31 Sudoeste 0 -- -- 71
2021-01-11 23:00:00 -1.7 13 Oeste 31 Oeste 0 -- -- 71
2021-01-11 22:00:00 -2 18 Oeste 32 Sudoeste 0 -- -- 74
2021-01-11 21:00:00 -1.9 16 Oeste 32 Noroeste 0 -- -- 77
2021-01-11 20:00:00 -2.3 20 Sudoeste 37 Oeste 0 -- -- 77
2021-01-11 19:00:00 -2.2 18 Oeste 33 Sudoeste 0 -- -- 76
2021-01-11 18:00:00 -1.4 5 Noroeste 28 Noroeste 0 -- -- 73
2021-01-11 17:00:00 0.6 10 Oeste 26 Noroeste 0 -- -- 70
2021-01-11 16:00:00 1.9 7 Noroeste 23 Oeste 0 -- -- 66
2021-01-11 15:00:00 1.6 11 Oeste 23 Oeste 0 -- -- 69
2021-01-11 14:00:00 2.1 6 Noroeste 24 Noroeste 0 -- -- 69
2021-01-11 13:00:00 1.1 8 Noroeste 24 Noroeste 0 -- -- 70
2021-01-11 12:00:00 0.1 9 Noroeste 19 Noroeste 0 -- -- 73
2021-01-11 11:00:00 0.3 6 Noroeste 19 Sudoeste 0 -- -- 74
2021-01-11 10:00:00 -1.3 10 Oeste 21 Oeste 0 -- -- 77
2021-01-11 09:00:00 -1.9 13 Sudoeste 29 Oeste 0 -- -- 79
2021-01-11 08:00:00 -2 16 Oeste 24 Oeste 0 -- -- 82
2021-01-11 07:00:00 -1.6 11 Oeste 33 Oeste 0 -- -- 81
2021-01-11 06:00:00 -1.4 21 Oeste 32 Oeste 0 -- -- 80
2021-01-11 05:00:00 -1.1 13 Oeste 27 Oeste 0 -- -- 83
2021-01-11 04:00:00 -0.6 15 Oeste 27 Oeste 0 -- -- 82
2021-01-11 03:00:00 -0.2 19 Noroeste 26 Noroeste 0 -- -- 84
2021-01-11 02:00:00 0 14 Oeste 22 Oeste 0 -- -- 84
2021-01-11 01:00:00 0.4 12 Oeste 22 Oeste 0 -- -- 84
2021-01-11 00:00:00 0.2 15 Oeste 21 Oeste 0 -- -- 86
2021-01-10 23:00:00 0.2 11 Sudoeste 25 Sudoeste 0 -- -- 86
2021-01-10 22:00:00 0.2 12 Oeste 23 Sudoeste 0 -- -- 87
2021-01-10 21:00:00 0.4 11 Oeste 19 Oeste 0.2 -- -- 86
2021-01-10 20:00:00 0.7 7 Noroeste 12 Oeste 0.2 -- -- 87
2021-01-10 19:00:00 0.8 6 Oeste 12 Oeste 0.2 -- -- 86
2021-01-10 18:00:00 0.8 9 Noroeste 14 Noroeste 0.6 -- -- 87
2021-01-10 17:00:00 1.3 4 Noroeste 16 Oeste 0 -- -- 85
2021-01-10 16:00:00 1.6 7 Noroeste 12 Oeste 0 -- -- 85
2021-01-10 15:00:00 1.5 4 Noroeste 20 Norte 0.2 -- -- 85
2021-01-10 14:00:00 1.6 8 Norte 23 Norte 1.8 -- -- 84
2021-01-10 13:00:00 2 9 Norte 21 Noroeste 0.4 -- -- 83
2021-01-10 12:00:00 2.2 6 Norte 18 Noroeste 0 -- -- 83
2021-01-10 11:00:00 2.1 7 Noroeste 22 Noroeste 0 -- -- 83
2021-01-10 10:00:00 1.4 5 Nordeste 17 Norte 1.4 -- -- 85
2021-01-10 09:00:00 1.5 8 Nordeste 26 Norte 0.2 -- -- 83
2021-01-10 08:00:00 1.3 9 Norte 24 Noroeste 0.2 -- -- 85
2021-01-10 07:00:00 1.4 11 Norte 21 Noroeste 0.4 -- -- 84
2021-01-10 06:00:00 1.7 6 Nordeste 15 Nordeste 0.4 -- -- 84
2021-01-10 05:00:00 1.5 6 Noroeste 21 Norte 0 -- -- 85
2021-01-10 04:00:00 1.3 6 Nordeste 20 Norte 0.4 -- -- 86
2021-01-10 03:00:00 1.4 4 Norte 13 Sudeste 0.2 -- -- 87
2021-01-10 02:00:00 1.2 5 Nordeste 18 Nordeste 0.8 -- -- 87
2021-01-10 01:00:00 1.5 6 Este 20 Nordeste 0.6 -- -- 85
2021-01-10 00:00:00 1.2 8 Nordeste 28 Nordeste 1.8 -- -- 86
2021-01-09 23:00:00 1.3 15 Este 35 Nordeste 1 -- -- 85
2021-01-09 22:00:00 1.8 16 Nordeste 34 Este 1 -- -- 84
2021-01-09 21:00:00 1.8 15 Nordeste 32 Nordeste 1 -- -- 86
2021-01-09 20:00:00 1.7 14 Nordeste 32 Nordeste 1 -- -- 90
2021-01-09 19:00:00 1.8 11 Nordeste 23 Nordeste 1.2 -- -- 91
2021-01-09 18:00:00 1.9 9 Este 22 Este 2 -- -- 91
2021-01-09 17:00:00 1.2 14 Este 25 Nordeste 2.2 -- -- 91
2021-01-09 16:00:00 1.6 17 Este 33 Este 2.8 -- -- 91
2021-01-09 15:00:00 1.4 13 Este 29 Este 2.6 -- -- 91
2021-01-09 14:00:00 1 15 Este 26 Este 2.4 -- -- 91
2021-01-09 13:00:00 0.3 13 Este 28 Este 0.4 -- -- 91
2021-01-09 12:00:00 0.2 14 Este 21 Este 0 -- -- 91
2021-01-09 11:00:00 0.1 12 Este 27 Este 0 -- -- 91
2021-01-09 10:00:00 0.1 14 Este 27 Este 0 -- -- 91
2021-01-09 09:00:00 0 12 Este 27 Este 0 -- -- 90
2021-01-09 08:00:00 -0.1 17 Este 30 Este 0 -- -- 90
2021-01-09 07:00:00 -0.3 13 Este 28 Nordeste 0 -- -- 90
2021-01-09 06:00:00 -0.6 15 Este 36 Nordeste 0 -- -- 90
2021-01-09 05:00:00 -0.8 18 Nordeste 40 Nordeste 0 -- -- 89
2021-01-09 04:00:00 -0.4 15 Nordeste 36 Nordeste 0 -- -- 87
2021-01-09 03:00:00 -0.9 8 Este 24 Nordeste 0 -- -- 80
2021-01-09 02:00:00 0.1 5 Nordeste 14 Nordeste 0 -- -- 67
2021-01-09 01:00:00 0.3 3 Este 8 Este 0 -- -- 64
2021-01-09 00:00:00 0.1 2 Sudoeste 5 Nordeste 0 -- -- 68
2021-01-08 23:00:00 -0.1 0 Calma 4 Este 0 -- -- 70
2021-01-08 22:00:00 0.2 0 Calma 4 Norte 0 -- -- 68
2021-01-08 21:00:00 0.1 2 Noroeste 6 Nordeste 0 -- -- 68
2021-01-08 20:00:00 0.4 3 Este 8 Este 0 -- -- 66
2021-01-08 19:00:00 0.5 0 Calma 8 Sudeste 0 -- -- 66
2021-01-08 18:00:00 0.9 6 Sudeste 10 Sudeste 0 -- -- 65
2021-01-08 17:00:00 2.1 4 Sudeste 8 Sudeste 0 -- -- 60
2021-01-08 16:00:00 3.1 4 Noroeste 11 Norte 0 -- -- 48
2021-01-08 15:00:00 3.5 6 Norte 13 Norte 0 -- -- 49
2021-01-08 14:00:00 3.7 5 Noroeste 13 Oeste 0 -- -- 47
2021-01-08 13:00:00 3.3 3 Oeste 12 Oeste 0 -- -- 52
2021-01-08 12:00:00 1.2 7 Oeste 12 Oeste 0 -- -- 62
2021-01-08 11:00:00 1.4 4 Este 13 Norte 0 -- -- 61
2021-01-08 10:00:00 -0.7 6 Noroeste 12 Norte 0 -- -- 67
2021-01-08 09:00:00 -1.6 6 Noroeste 22 Oeste 0 -- -- 70
2021-01-08 08:00:00 -1.4 12 Oeste 19 Noroeste 0 -- -- 68
2021-01-08 07:00:00 -1.6 6 Oeste 19 Noroeste 0 -- -- 70
2021-01-08 06:00:00 -1.4 5 Oeste 26 Oeste 0 -- -- 70
2021-01-08 05:00:00 -0.7 17 Sudoeste 26 Oeste 0 -- -- 66
2021-01-08 04:00:00 -0.4 15 Sudoeste 23 Sudoeste 0 -- -- 65
2021-01-08 03:00:00 -0.5 10 Sudoeste 21 Sudoeste 0 -- -- 68
2021-01-08 02:00:00 -0.2 15 Sudoeste 21 Sudoeste 0 -- -- 67
2021-01-08 01:00:00 0.1 5 Noroeste 19 Noroeste 0 -- -- 67
2021-01-08 00:00:00 -0.1 7 Oeste 15 Oeste 0 -- -- 67
2021-01-07 23:00:00 0.1 3 Noroeste 22 Oeste 0 -- -- 67
2021-01-07 22:00:00 0.5 7 Oeste 18 Oeste 0 -- -- 69
2021-01-07 21:00:00 0.4 10 Oeste 24 Oeste 0 -- -- 72
2021-01-07 20:00:00 0.3 10 Oeste 25 Oeste 0 -- -- 72
2021-01-07 19:00:00 1.3 13 Oeste 22 Sudoeste 0 -- -- 70
2021-01-07 18:00:00 2.1 9 Noroeste 13 Noroeste 0 -- -- 68
2021-01-07 17:00:00 2.6 4 Noroeste 16 Noroeste 0 -- -- 70
2021-01-07 16:00:00 3.4 9 Noroeste 16 Noroeste 0 -- -- 67
2021-01-07 15:00:00 4.2 7 Noroeste 12 Noroeste 0 -- -- 63
2021-01-07 14:00:00 4.3 2 Este 9 Este 0 -- -- 66
2021-01-07 13:00:00 3.6 7 Este 13 Este 0 -- -- 68
2021-01-07 12:00:00 3.1 4 Este 13 Este 0 -- -- 71
2021-01-07 11:00:00 2.7 6 Este 11 Este 0 -- -- 74
2021-01-07 10:00:00 1.5 4 Este 6 Este 0 -- -- 79
2021-01-07 09:00:00 0.2 0 Calma 10 Este 0 -- -- 78
2021-01-07 08:00:00 0.2 0 Calma 7 Este 0 -- -- 79
2021-01-07 07:00:00 0.1 0 Calma 4 Este 0 -- -- 79
2021-01-07 06:00:00 -0.3 0 Calma 5 Este 0 -- -- 77
2021-01-07 05:00:00 -0.8 0 Calma 6 Este 0 -- -- 76
2021-01-07 04:00:00 -1.2 3 Noroeste 5 Oeste 0 -- -- 72
2021-01-07 03:00:00 -2.5 2 Noroeste 4 Oeste 0 -- -- 78
2021-01-07 02:00:00 -3.2 3 Noroeste 6 Noroeste 0 -- -- 79
2021-01-07 01:00:00 -3.5 3 Noroeste 6 Noroeste 0 -- -- 77
2021-01-07 00:00:00 -3.6 6 Noroeste 8 Noroeste 0 -- -- 78
2021-01-06 23:00:00 -3.5 8 Noroeste 10 Noroeste 0 -- -- 78
2021-01-06 22:00:00 -3.9 7 Noroeste 11 Noroeste 0 -- -- 77
2021-01-06 21:00:00 -3.7 6 Noroeste 9 Noroeste 0 -- -- 73
2021-01-06 20:00:00 -3.3 5 Noroeste 7 Noroeste 0 -- -- 72
2021-01-06 19:00:00 -2.3 5 Noroeste 8 Noroeste 0 -- -- 70
2021-01-06 18:00:00 -0.6 5 Noroeste 8 Sur 0 -- -- 65
2021-01-06 17:00:00 5 6 Sur 13 Sudeste 0 -- -- 47
2021-01-06 16:00:00 6 8 Sudeste 17 Sudeste 0 -- -- 45
2021-01-06 15:00:00 6.6 8 Sudeste 14 Oeste 0 -- -- 44
2021-01-06 14:00:00 5.8 7 Nordeste 16 Noroeste 0 -- -- 48
2021-01-06 13:00:00 4.5 4 Nordeste 14 Nordeste 0 -- -- 49
2021-01-06 12:00:00 3.9 8 Oeste 14 Noroeste 0 -- -- 52
2021-01-06 11:00:00 2.6 4 Sudoeste 8 Sudoeste 0 -- -- 58
2021-01-06 10:00:00 -0.3 4 Oeste 6 Oeste 0 -- -- 71
2021-01-06 09:00:00 -2.7 4 Noroeste 7 Noroeste 0 -- -- 77
2021-01-06 08:00:00 -4 5 Oeste 9 Noroeste 0 -- -- 80
2021-01-06 07:00:00 -3.4 3 Noroeste 5 Noroeste 0 -- -- 80
2021-01-06 06:00:00 -2.4 0 Calma 9 Oeste 0 -- -- 77
2021-01-06 05:00:00 -2.2 3 Noroeste 5 Noroeste 0 -- -- 77
2021-01-06 04:00:00 -2.9 0 Calma 4 Oeste 0 -- -- 77
2021-01-06 03:00:00 -1.9 2 Noroeste 4 Noroeste 0 -- -- 75
2021-01-06 02:00:00 -1.6 0 Calma 15 Noroeste 0 -- -- 74
2021-01-06 01:00:00 -0.7 6 Oeste 18 Oeste 0 -- -- 71
2021-01-06 00:00:00 -0.6 10 Noroeste 15 Noroeste 0 -- -- 70
2021-01-05 23:00:00 -1.3 5 Noroeste 14 Oeste 0 -- -- 76
2021-01-05 22:00:00 -1.5 9 Noroeste 14 Noroeste 0 -- -- 77
2021-01-05 21:00:00 -1.5 2 Este 12 Noroeste 0 -- -- 74
2021-01-05 20:00:00 -1 8 Noroeste 11 Noroeste 0 -- -- 75
2021-01-05 19:00:00 -0.4 3 Noroeste 13 Noroeste 0 -- -- 73
2021-01-05 18:00:00 0.7 11 Noroeste 25 Noroeste 0 -- -- 67
2021-01-05 17:00:00 2.2 16 Oeste 26 Oeste 0 -- -- 61
2021-01-05 16:00:00 2.4 17 Noroeste 30 Noroeste 0 -- -- 62
2021-01-05 15:00:00 6.9 6 Sudoeste 15 Oeste 0 -- -- 42
2021-01-05 14:00:00 5.6 8 Noroeste 19 Oeste 0 -- -- 41
2021-01-05 13:00:00 4.1 11 Oeste 26 Oeste 0 -- -- 53
2021-01-05 12:00:00 2.6 9 Noroeste 17 Noroeste 0 -- -- 59
2021-01-05 11:00:00 0.8 7 Norte 18 Norte 0 -- -- 72
2021-01-05 10:00:00 -0.8 8 Oeste 17 Noroeste 0 -- -- 79
2021-01-05 09:00:00 -1.4 7 Noroeste 17 Noroeste 0 -- -- 82
2021-01-05 08:00:00 -1.7 11 Oeste 19 Noroeste 0 -- -- 82
2021-01-05 07:00:00 -1.4 4 Oeste 23 Noroeste 0 -- -- 82
2021-01-05 06:00:00 -1.1 9 Noroeste 22 Oeste 0 -- -- 80
2021-01-05 05:00:00 -0.7 8 Noroeste 21 Oeste 0 -- -- 79
2021-01-05 04:00:00 -0.6 4 Norte 23 Noroeste 0 -- -- 79
2021-01-05 03:00:00 -0.3 4 Sudoeste 28 Noroeste 0 -- -- 77
2021-01-05 02:00:00 -0.2 5 Oeste 39 Oeste 0 -- -- 76
2021-01-05 01:00:00 0.2 22 Oeste 42 Oeste 0 -- -- 74
2021-01-05 00:00:00 -0.2 22 Noroeste 33 Noroeste 0 -- -- 75
2021-01-04 23:00:00 -0.1 23 Noroeste 31 Noroeste 0 -- -- 74
2021-01-04 22:00:00 0.1 8 Oeste 26 Noroeste 0 -- -- 70
2021-01-04 21:00:00 0.4 12 Noroeste 33 Noroeste 0 -- -- 67
2021-01-04 20:00:00 1.1 23 Noroeste 35 Noroeste 0 -- -- 65
2021-01-04 19:00:00 1.2 4 Noroeste 14 Oeste 0 -- -- 66
2021-01-04 18:00:00 1.9 4 Oeste 22 Oeste 0 -- -- 60
2021-01-04 17:00:00 4.1 13 Oeste 32 Oeste 0 -- -- 51
2021-01-04 16:00:00 5.5 12 Oeste 33 Oeste 0 -- -- 46
2021-01-04 15:00:00 5.7 17 Noroeste 36 Noroeste 0 -- -- 47
2021-01-04 14:00:00 4.7 15 Noroeste 36 Oeste 0 -- -- 49
2021-01-04 13:00:00 4.6 19 Noroeste 42 Noroeste 0 -- -- 55
2021-01-04 12:00:00 3.7 20 Noroeste 32 Noroeste 0 -- -- 59
2021-01-04 11:00:00 3.2 13 Noroeste 31 Noroeste 0 -- -- 61
2021-01-04 10:00:00 1.5 6 Sudoeste 22 Oeste 0 -- -- 66
2021-01-04 09:00:00 -1.5 9 Noroeste 17 Noroeste 0 -- -- 82
2021-01-04 08:00:00 -1.2 9 Oeste 15 Oeste 0 -- -- 80
2021-01-04 07:00:00 -1 0 Calma 15 Oeste 0 -- -- 78
2021-01-04 06:00:00 0.3 5 Noroeste 15 Noroeste 0 -- -- 74
2021-01-04 05:00:00 0.6 7 Noroeste 17 Noroeste 0 -- -- 76
2021-01-04 04:00:00 1.1 4 Oeste 10 Noroeste 0 -- -- 71
2021-01-04 03:00:00 1.3 4 Sudeste 27 Noroeste 0 -- -- 68
2021-01-04 02:00:00 1.3 18 Noroeste 39 Noroeste 0 -- -- 70
2021-01-04 01:00:00 1.5 10 Noroeste 31 Oeste 0 -- -- 67
2021-01-04 00:00:00 1.1 3 Oeste 24 Noroeste 0 -- -- 68
2021-01-03 23:00:00 1.9 13 Oeste 27 Noroeste 0 -- -- 64
2021-01-03 22:00:00 1.7 9 Noroeste 23 Noroeste 0 -- -- 66
2021-01-03 21:00:00 2.4 18 Noroeste 41 Noroeste 0 -- -- 62
2021-01-03 20:00:00 2.8 16 Noroeste 37 Oeste 0 -- -- 61
2021-01-03 19:00:00 3.3 26 Noroeste 37 Noroeste 0 -- -- 60
2021-01-03 18:00:00 3.5 20 Noroeste 32 Oeste 0 -- -- 58
2021-01-03 17:00:00 5.1 17 Noroeste 31 Oeste 0 -- -- 45
2021-01-03 16:00:00 5.2 20 Noroeste 36 Noroeste 0 -- -- 40
2021-01-03 15:00:00 6.6 18 Noroeste 37 Oeste 0 -- -- 30
2021-01-03 14:00:00 5.8 23 Oeste 35 Oeste 0 -- -- 29
2021-01-03 13:00:00 5.3 24 Noroeste 42 Noroeste 0 -- -- 28
2021-01-03 12:00:00 4.1 18 Noroeste 37 Noroeste 0 -- -- 32
2021-01-03 11:00:00 2.2 19 Oeste 31 Oeste 0 -- -- 36
2021-01-03 10:00:00 0 14 Noroeste 25 Noroeste 0 -- -- 45
2021-01-03 09:00:00 -2.3 13 Noroeste 20 Noroeste 0 -- -- 56
2021-01-03 08:00:00 -2.4 12 Noroeste 19 Oeste 0 -- -- 57
2021-01-03 07:00:00 -1.3 7 Oeste 18 Sudoeste 0 -- -- 52
2021-01-03 06:00:00 -1.1 3 Oeste 27 Oeste 0 -- -- 51
2021-01-03 05:00:00 -0.8 14 Noroeste 38 Noroeste 0 -- -- 51
2021-01-03 04:00:00 -0.9 24 Noroeste 36 Noroeste 0 -- -- 53
2021-01-03 03:00:00 -0.6 9 Oeste 16 Sudoeste 0 -- -- 52
2021-01-03 02:00:00 -0.3 11 Oeste 23 Oeste 0 -- -- 48
2021-01-03 01:00:00 -0.1 11 Oeste 21 Sudoeste 0 -- -- 48
2021-01-03 00:00:00 0.1 8 Sudoeste 23 Noroeste 0 -- -- 49
2021-01-02 23:00:00 0.6 10 Noroeste 31 Noroeste 0 -- -- 49
2021-01-02 22:00:00 1.8 14 Noroeste 29 Noroeste 0 -- -- 47
2021-01-02 21:00:00 2.7 19 Noroeste 31 Noroeste 0 -- -- 48
2021-01-02 20:00:00 3.3 17 Noroeste 31 Noroeste 0 -- -- 53
2021-01-02 19:00:00 3.5 19 Noroeste 31 Noroeste 0 -- -- 55
2021-01-02 18:00:00 3.2 17 Noroeste 34 Noroeste 0 -- -- 57
2021-01-02 17:00:00 2.9 13 Noroeste 32 Noroeste 0 -- -- 61
2021-01-02 16:00:00 3.4 17 Noroeste 32 Noroeste 0 -- -- 56
2021-01-02 15:00:00 5 15 Noroeste 35 Noroeste 0 -- -- 52
2021-01-02 14:00:00 3.8 8 Norte 26 Norte 0 -- -- 56